createdAt,value
2023-02-24T00:02:48.792Z,1.02
2023-02-24T00:05:51.332Z,1.30
2023-02-24T00:08:53.849Z,1.17
2023-02-24T00:11:59.287Z,1.20
2023-02-24T00:15:01.919Z,1.40
2023-02-24T00:18:07.403Z,1.10
2023-02-24T00:21:17.417Z,1.40
2023-02-24T00:24:19.904Z,1.63
2023-02-24T00:27:22.383Z,1.20
2023-02-24T00:30:24.584Z,0.80
2023-02-24T00:33:28.771Z,1.20
2023-02-24T00:36:33.895Z,1.20
2023-02-24T00:39:37.828Z,1.08
2023-02-24T00:42:40.372Z,1.20
2023-02-24T00:45:43.117Z,1.13
2023-02-24T00:48:48.680Z,1.48
2023-02-24T00:51:54.387Z,1.15
2023-02-24T00:54:59.142Z,1.20
2023-02-24T00:58:07.512Z,1.65
2023-02-24T01:01:20.701Z,0.95
2023-02-24T01:04:24.073Z,0.93
2023-02-24T01:07:30.300Z,1.13
2023-02-24T01:10:34.669Z,1.20
2023-02-24T01:13:37.203Z,1.10
2023-02-24T01:16:45.181Z,1.10
2023-02-24T01:19:49.847Z,1.00
2023-02-24T01:22:53.706Z,1.20
2023-02-24T01:26:00.208Z,1.13
2023-02-24T01:29:10.171Z,0.88
2023-02-24T01:32:19.472Z,1.20
2023-02-24T01:35:22.415Z,1.10
2023-02-24T01:38:24.867Z,0.90
2023-02-24T01:41:28.007Z,1.00
2023-02-24T01:44:32.757Z,1.30
2023-02-24T01:47:35.305Z,1.00
2023-02-24T01:50:38.982Z,0.80
2023-02-24T01:53:41.831Z,1.17
2023-02-24T01:56:47.662Z,0.98
2023-02-24T01:59:54.139Z,0.88
2023-02-24T02:02:58.167Z,1.02
2023-02-24T02:06:06.597Z,1.00
2023-02-24T02:09:11.773Z,1.13
2023-02-24T02:12:14.105Z,0.90
2023-02-24T02:15:20.926Z,0.93
2023-02-24T02:18:36.935Z,0.88
2023-02-24T02:21:56.383Z,1.05
2023-02-24T02:25:10.569Z,0.77
2023-02-24T02:28:31.952Z,0.82
2023-02-24T02:31:51.140Z,1.20
2023-02-24T02:35:19.135Z,0.90
2023-02-24T02:38:34.658Z,0.70
2023-02-24T02:42:02.525Z,0.93
2023-02-24T02:45:30.703Z,0.85
2023-02-24T02:48:54.685Z,0.80
2023-02-24T02:52:07.100Z,0.98
2023-02-24T02:55:19.125Z,1.10
2023-02-24T02:58:34.431Z,1.02
2023-02-24T03:01:39.223Z,0.70
2023-02-24T03:04:48.619Z,1.05
2023-02-24T03:07:54.924Z,0.98
2023-02-24T03:11:00.796Z,0.95
2023-02-24T03:14:06.625Z,0.85
2023-02-24T03:17:16.301Z,0.98
2023-02-24T03:20:29.611Z,0.85
2023-02-24T03:23:35.084Z,0.80
2023-02-24T03:26:43.039Z,0.82
2023-02-24T03:29:52.956Z,0.70
2023-02-24T03:33:01.345Z,0.95
2023-02-24T03:36:07.169Z,0.80
2023-02-24T03:39:12.573Z,1.20
2023-02-24T03:42:29.460Z,0.90
2023-02-24T03:45:36.689Z,0.60
2023-02-24T03:48:45.533Z,1.35
2023-02-24T03:52:03.577Z,0.77
2023-02-24T03:55:35.368Z,0.70
2023-02-24T03:58:53.714Z,0.75
2023-02-24T04:02:04.047Z,1.00
2023-02-24T04:05:22.056Z,0.80
2023-02-24T04:08:39.639Z,0.60
2023-02-24T04:11:55.918Z,0.70
2023-02-24T04:15:10.897Z,1.02
2023-02-24T04:18:21.870Z,0.83
2023-02-24T04:21:31.658Z,0.90
2023-02-24T04:24:35.748Z,0.85
2023-02-24T04:27:38.516Z,0.60
2023-02-24T04:30:52.960Z,0.80
2023-02-24T04:33:55.758Z,0.90
2023-02-24T04:37:07.757Z,0.75
2023-02-24T04:40:12.524Z,0.70
2023-02-24T04:43:16.428Z,0.82
2023-02-24T04:46:23.476Z,0.77
2023-02-24T04:49:26.162Z,1.02
2023-02-24T04:52:29.866Z,0.90
2023-02-24T04:55:33.444Z,1.15
2023-02-24T04:58:39.714Z,0.80
2023-02-24T05:01:44.148Z,0.70
2023-02-24T05:04:50.422Z,1.00
2023-02-24T05:07:57.486Z,0.88
2023-02-24T05:11:04.215Z,0.88
2023-02-24T05:14:08.253Z,0.73
2023-02-24T05:17:12.945Z,0.70
2023-02-24T05:20:33.531Z,0.80
2023-02-24T05:23:39.621Z,0.80
2023-02-24T05:26:42.161Z,0.70
2023-02-24T05:29:45.286Z,0.80
2023-02-24T05:32:48.579Z,0.88
2023-02-24T05:35:53.915Z,0.90
2023-02-24T05:39:19.539Z,0.80
2023-02-24T05:42:21.931Z,0.80
2023-02-24T05:45:30.506Z,0.88
2023-02-24T05:48:35.897Z,1.17
2023-02-24T05:54:45.166Z,0.80
2023-02-24T05:57:48.322Z,0.82
2023-02-24T06:00:52.860Z,0.82
2023-02-24T06:03:54.795Z,0.75
2023-02-24T06:06:58.281Z,1.10
2023-02-24T06:10:05.131Z,0.85
2023-02-24T06:13:08.011Z,1.08
2023-02-24T06:16:13.143Z,1.08
2023-02-24T06:19:17.581Z,0.80
2023-02-24T06:22:23.289Z,0.77
2023-02-24T06:25:27.055Z,1.05
2023-02-24T06:28:29.341Z,1.35
2023-02-24T06:31:32.795Z,0.80
2023-02-24T06:34:36.846Z,1.15
2023-02-24T06:37:40.065Z,1.00
2023-02-24T06:40:42.831Z,0.85
2023-02-24T06:43:48.689Z,0.95
2023-02-24T06:46:52.452Z,1.13
2023-02-24T06:49:54.758Z,0.90
2023-02-24T06:53:01.164Z,1.40
2023-02-24T06:56:14.997Z,1.20
2023-02-24T06:59:21.915Z,1.35
2023-02-24T07:02:30.009Z,1.30
2023-02-24T07:05:35.142Z,1.10
2023-02-24T07:08:39.176Z,1.20
2023-02-24T07:11:46.590Z,1.17
2023-02-24T07:14:50.674Z,1.00
2023-02-24T07:17:54.831Z,1.13
2023-02-24T07:21:05.248Z,0.95
2023-02-24T07:24:13.302Z,1.52
2023-02-24T07:27:23.710Z,1.15
2023-02-24T07:30:26.580Z,1.70
2023-02-24T07:33:29.475Z,0.93
2023-02-24T07:36:35.115Z,1.13
2023-02-24T07:39:39.914Z,1.30
2023-02-24T07:42:42.529Z,1.42
2023-02-24T07:45:47.663Z,0.90
2023-02-24T07:48:52.423Z,1.55
2023-02-24T07:51:58.085Z,1.52
2023-02-24T07:55:00.486Z,1.20
2023-02-24T07:58:06.153Z,1.70
2023-02-24T08:01:09.188Z,1.15
2023-02-24T08:04:16.045Z,1.60
2023-02-24T08:07:25.415Z,1.35
2023-02-24T08:10:28.092Z,1.05
2023-02-24T08:13:37.691Z,1.27
2023-02-24T08:16:41.675Z,1.58
2023-02-24T08:19:44.733Z,1.20
2023-02-24T08:23:19.397Z,1.55
2023-02-24T08:26:31.120Z,2.58
2023-02-24T08:29:58.426Z,1.70
2023-02-24T08:33:02.784Z,2.35
2023-02-24T08:36:05.266Z,1.33
2023-02-24T08:39:07.706Z,1.50
2023-02-24T08:42:15.583Z,1.73
2023-02-24T08:45:17.999Z,1.50
2023-02-24T08:48:40.297Z,1.45
2023-02-24T08:51:48.459Z,1.60
2023-02-24T08:54:50.919Z,1.33
2023-02-24T08:57:56.488Z,1.60
2023-02-24T09:00:59.599Z,1.20
2023-02-24T09:04:08.332Z,1.35
2023-02-24T09:07:17.996Z,1.30
2023-02-24T09:10:21.433Z,1.83
2023-02-24T09:13:28.044Z,1.30
2023-02-24T09:16:31.151Z,1.25
2023-02-24T09:19:52.241Z,1.60
2023-02-24T09:23:07.629Z,1.60
2023-02-24T09:29:33.922Z,1.08
2023-02-24T09:32:36.278Z,1.30
2023-02-24T09:35:42.120Z,1.05
2023-02-24T09:39:01.531Z,1.23
2023-02-24T09:42:24.381Z,1.50
2023-02-24T09:45:35.967Z,1.63
2023-02-24T09:48:48.128Z,1.33
2023-02-24T09:52:00.886Z,1.70
2023-02-24T09:55:27.494Z,1.23
2023-02-24T09:59:10.506Z,1.60
2023-02-24T10:02:27.784Z,1.42
2023-02-24T10:05:48.519Z,1.25
2023-02-24T10:09:11.914Z,1.40
2023-02-24T10:12:17.678Z,1.52
2023-02-24T10:15:56.997Z,1.50
2023-02-24T10:19:27.813Z,1.20
2023-02-24T10:22:35.251Z,1.60
2023-02-24T10:25:55.230Z,1.50
2023-02-24T10:29:32.108Z,2.50
2023-02-24T10:32:47.560Z,2.10
2023-02-24T10:35:51.108Z,2.30
2023-02-24T10:38:57.028Z,2.90
2023-02-24T10:42:18.555Z,3.55
2023-02-24T10:45:22.439Z,2.88
2023-02-24T10:48:41.333Z,1.98
2023-02-24T10:51:52.564Z,2.55
2023-02-24T10:55:08.678Z,2.53
2023-02-24T10:58:45.257Z,2.90
2023-02-24T11:02:07.307Z,2.75
2023-02-24T11:05:38.469Z,2.88
2023-02-24T11:09:29.852Z,3.03
2023-02-24T11:12:55.598Z,3.08
2023-02-24T11:16:26.165Z,3.28
2023-02-24T11:19:37.548Z,4.22
2023-02-24T11:23:10.138Z,3.28
2023-02-24T11:26:22.031Z,4.75
2023-02-24T11:29:44.675Z,5.28
2023-02-24T11:33:06.874Z,5.32
2023-02-24T11:36:20.740Z,4.78
2023-02-24T11:39:38.094Z,5.90
2023-02-24T11:42:47.046Z,5.10
2023-02-24T11:46:03.942Z,5.05
2023-02-24T11:49:29.157Z,4.60
2023-02-24T11:52:34.322Z,5.97
2023-02-24T11:55:47.451Z,4.65
2023-02-24T11:59:07.715Z,5.57
2023-02-24T12:02:14.684Z,5.45
2023-02-24T12:05:24.881Z,5.53
2023-02-24T12:08:32.764Z,5.78
2023-02-24T12:11:50.564Z,5.10
2023-02-24T12:14:58.289Z,5.72
2023-02-24T12:18:28.268Z,3.85
2023-02-24T12:21:39.924Z,5.68
2023-02-24T12:24:51.813Z,4.82
2023-02-24T12:28:25.038Z,4.07
2023-02-24T12:31:55.883Z,5.72
2023-02-24T12:35:20.442Z,3.95
2023-02-24T12:38:52.769Z,4.35
2023-02-24T12:42:06.968Z,4.15
2023-02-24T12:45:49.310Z,3.88
2023-02-24T12:48:56.255Z,3.20
2023-02-24T12:52:13.723Z,2.78
2023-02-24T12:55:22.482Z,1.80
2023-02-24T12:58:36.427Z,1.98
2023-02-24T13:02:34.016Z,2.08
2023-02-24T13:05:58.736Z,2.25
2023-02-24T13:09:24.728Z,2.63
2023-02-24T13:12:49.971Z,2.88
2023-02-24T13:15:59.155Z,3.17
2023-02-24T13:19:16.489Z,3.70
2023-02-24T13:23:33.878Z,3.60
2023-02-24T13:27:06.754Z,3.40
2023-02-24T13:30:11.551Z,3.92
2023-02-24T13:33:44.405Z,3.53
2023-02-24T13:36:48.401Z,3.67
2023-02-24T13:39:51.113Z,3.90
2023-02-24T13:42:56.356Z,4.50
2023-02-24T13:46:05.005Z,2.70
2023-02-24T13:49:24.155Z,2.63
2023-02-24T13:53:15.001Z,2.60
2023-02-24T13:56:36.068Z,1.70
2023-02-24T14:00:13.685Z,2.10
2023-02-24T14:03:25.563Z,1.40
2023-02-24T14:06:28.679Z,1.42
2023-02-24T14:09:39.225Z,1.40
2023-02-24T14:12:45.784Z,1.50
2023-02-24T14:15:50.367Z,1.17
2023-02-24T14:18:57.861Z,1.10
2023-02-24T14:22:00.888Z,1.30
2023-02-24T14:25:10.092Z,1.08
2023-02-24T14:28:23.911Z,1.13
2023-02-24T14:31:31.372Z,0.93
2023-02-24T14:34:48.004Z,1.55
2023-02-24T14:37:53.640Z,1.23
2023-02-24T14:40:56.120Z,1.35
2023-02-24T14:44:04.942Z,0.52
2023-02-24T14:47:11.376Z,0.70
2023-02-24T14:50:20.223Z,0.45
2023-02-24T14:53:26.510Z,0.90
2023-02-24T14:56:35.886Z,1.10
2023-02-24T14:59:40.301Z,1.33
2023-02-24T15:02:48.825Z,1.23
2023-02-24T15:05:56.150Z,1.55
2023-02-24T15:09:03.103Z,1.70
2023-02-24T15:12:34.303Z,1.65
2023-02-24T15:15:42.881Z,1.70
2023-02-24T15:18:51.382Z,1.48
2023-02-24T15:21:55.342Z,1.23
2023-02-24T15:25:28.174Z,1.83
2023-02-24T15:28:37.892Z,1.63
2023-02-24T15:31:49.262Z,1.30
2023-02-24T15:34:54.637Z,1.33
2023-02-24T15:37:57.324Z,1.48
2023-02-24T15:41:03.844Z,2.30
2023-02-24T15:44:06.295Z,1.90
2023-02-24T15:47:23.489Z,1.85
2023-02-24T15:50:26.910Z,1.60
2023-02-24T15:53:29.747Z,1.47
2023-02-24T15:56:51.965Z,1.90
2023-02-24T15:59:54.240Z,1.70
2023-02-24T16:02:56.621Z,1.40
2023-02-24T16:06:00.497Z,2.65
2023-02-24T16:09:05.517Z,1.83
2023-02-24T16:12:14.353Z,1.98
2023-02-24T16:15:22.956Z,2.90
2023-02-24T16:18:26.206Z,2.17
2023-02-24T16:21:29.683Z,2.88
2023-02-24T16:24:32.510Z,1.88
2023-02-24T16:27:36.310Z,2.13
2023-02-24T16:30:39.266Z,2.10
2023-02-24T16:33:53.989Z,1.75
2023-02-24T16:36:58.916Z,2.78
2023-02-24T16:40:01.270Z,2.15
2023-02-24T16:43:05.516Z,2.80
2023-02-24T16:46:15.168Z,2.17
2023-02-24T16:49:21.289Z,2.42
2023-02-24T16:52:25.274Z,2.10
2023-02-24T16:55:29.014Z,2.97
2023-02-24T16:58:32.491Z,1.70
2023-02-24T17:01:35.246Z,2.10
2023-02-24T17:04:38.027Z,1.40
2023-02-24T17:07:41.662Z,1.80
2023-02-24T17:10:45.019Z,1.33
2023-02-24T17:13:48.007Z,1.98
2023-02-24T17:16:50.194Z,2.17
2023-02-24T17:19:53.363Z,2.40
2023-02-24T17:22:55.577Z,2.13
2023-02-24T17:26:01.171Z,2.17
2023-02-24T17:29:03.457Z,1.85
2023-02-24T17:32:06.577Z,2.15
2023-02-24T17:35:09.437Z,2.95
2023-02-24T17:38:16.791Z,2.97
2023-02-24T17:41:18.943Z,2.03
2023-02-24T17:44:22.055Z,2.85
2023-02-24T17:47:24.516Z,2.95
2023-02-24T17:50:27.594Z,2.88
2023-02-24T17:53:31.595Z,2.45
2023-02-24T17:56:34.464Z,2.72
2023-02-24T17:59:37.912Z,2.38
2023-02-24T18:02:41.283Z,3.30
2023-02-24T18:05:45.114Z,2.70
2023-02-24T18:08:48.058Z,2.88
2023-02-24T18:11:50.853Z,4.40
2023-02-24T18:15:07.250Z,2.53
2023-02-24T18:18:11.159Z,3.80
2023-02-24T18:21:13.790Z,3.20
2023-02-24T18:24:16.584Z,2.97
2023-02-24T18:27:19.667Z,3.13
2023-02-24T18:30:21.825Z,3.65
2023-02-24T18:33:25.543Z,2.88
2023-02-24T18:36:29.947Z,2.65
2023-02-24T18:39:35.415Z,3.38
2023-02-24T18:42:38.156Z,2.58
2023-02-24T18:45:43.862Z,2.92
2023-02-24T18:48:47.535Z,3.58
2023-02-24T18:51:49.909Z,3.28
2023-02-24T18:54:55.592Z,2.75
2023-02-24T18:57:58.142Z,3.45
2023-02-24T19:01:16.748Z,3.38
2023-02-24T19:04:31.411Z,3.25
2023-02-24T19:07:42.780Z,2.70
2023-02-24T19:10:45.417Z,2.60
2023-02-24T19:13:48.137Z,2.10
2023-02-24T19:16:52.036Z,2.33
2023-02-24T19:19:55.229Z,2.65
2023-02-24T19:22:57.628Z,2.42
2023-02-24T19:26:06.328Z,3.10
2023-02-24T19:29:12.553Z,3.70
2023-02-24T19:32:21.861Z,2.45
2023-02-24T19:35:32.227Z,0.90
2023-02-24T19:42:10.720Z,1.30
2023-02-24T19:45:15.196Z,1.67
2023-02-24T19:48:17.926Z,1.77
2023-02-24T19:51:28.075Z,1.45
2023-02-24T19:54:58.226Z,1.33
2023-02-24T19:58:00.242Z,1.88
2023-02-24T20:01:13.975Z,1.88
2023-02-24T20:04:21.718Z,1.40
2023-02-24T20:07:24.697Z,1.93
2023-02-24T20:10:27.724Z,1.42
2023-02-24T20:13:31.375Z,1.83
2023-02-24T20:16:37.069Z,2.40
2023-02-24T20:19:39.444Z,2.03
2023-02-24T20:22:42.167Z,2.17
2023-02-24T20:25:51.390Z,2.22
2023-02-24T20:28:53.528Z,2.83
2023-02-24T20:31:56.145Z,1.92
2023-02-24T20:34:58.709Z,1.40
2023-02-24T20:38:02.830Z,1.88
2023-02-24T20:41:05.666Z,0.98
2023-02-24T20:44:08.802Z,1.30
2023-02-24T20:47:11.230Z,1.40
2023-02-24T20:50:15.815Z,1.63
2023-02-24T20:53:18.143Z,1.10
2023-02-24T20:56:34.349Z,2.00
2023-02-24T20:59:43.994Z,1.63
2023-02-24T21:02:49.830Z,1.50
2023-02-24T21:06:01.559Z,1.42
2023-02-24T21:09:12.121Z,1.65
2023-02-24T21:12:17.841Z,1.05
2023-02-24T21:15:22.267Z,1.33
2023-02-24T21:18:24.676Z,1.67
2023-02-24T21:21:27.514Z,1.15
2023-02-24T21:24:31.367Z,1.45
2023-02-24T21:27:35.519Z,0.95
2023-02-24T21:30:41.750Z,1.60
2023-02-24T21:33:45.067Z,1.50
2023-02-24T21:36:48.103Z,1.50
2023-02-24T21:39:50.804Z,1.50
2023-02-24T21:42:53.729Z,1.85
2023-02-24T21:46:00.262Z,2.43
2023-02-24T21:49:02.379Z,1.70
2023-02-24T21:52:11.649Z,2.50
2023-02-24T21:55:14.820Z,2.30
2023-02-24T21:58:18.474Z,2.23
2023-02-24T22:01:27.632Z,1.88
2023-02-24T22:04:30.537Z,2.33
2023-02-24T22:07:32.532Z,2.15
2023-02-24T22:10:35.363Z,2.47
2023-02-24T22:13:38.611Z,2.95
2023-02-24T22:16:43.194Z,2.80
2023-02-24T22:19:45.269Z,2.47
2023-02-24T22:22:48.615Z,2.33
2023-02-24T22:25:50.736Z,2.42
2023-02-24T22:28:55.086Z,2.45
2023-02-24T22:31:57.743Z,2.33
2023-02-24T22:35:00.433Z,2.13
2023-02-24T22:38:03.407Z,2.28
2023-02-24T22:41:09.309Z,2.47
2023-02-24T22:44:11.603Z,2.30
2023-02-24T22:47:14.702Z,2.95
2023-02-24T22:50:17.507Z,2.17
2023-02-24T22:53:21.010Z,1.97
2023-02-24T22:56:27.424Z,2.03
2023-02-24T22:59:30.133Z,1.80
2023-02-24T23:02:32.218Z,2.25
2023-02-24T23:05:35.532Z,2.03
2023-02-24T23:08:39.261Z,1.85
2023-02-24T23:11:42.322Z,1.58
2023-02-24T23:14:44.804Z,1.60
2023-02-24T23:17:49.071Z,1.27
2023-02-24T23:20:59.637Z,1.60
2023-02-24T23:24:04.213Z,2.10
2023-02-24T23:27:06.710Z,1.77
2023-02-24T23:30:13.285Z,1.38
2023-02-24T23:33:15.471Z,1.33
2023-02-24T23:36:18.589Z,1.70
2023-02-24T23:39:24.734Z,1.55
2023-02-24T23:42:27.191Z,1.80
2023-02-24T23:45:29.136Z,1.70
2023-02-24T23:48:32.177Z,1.73
2023-02-24T23:51:47.415Z,1.70
2023-02-24T23:54:52.799Z,1.48
2023-02-24T23:57:56.059Z,1.40
